Time;durP1;ratioP1;P1;durP2;ratioP2;P2;SDS_P1;SDS_P2;PMS_P1;PMS_P2;Temp;Humidity;BMP_temperature;BMP_pressure;BME280_temperature;BME280_humidity;BME280_pressure;Samples;Min_cycle;Max_cycle;Signal;HPM_P1;HPM_P2
2023/06/23 00:01:45;;;;;;;23.05;15.95;;;;;;;17.08;100.00;101820.84;5030863;28;22091;-77
2023/06/23 00:04:33;;;;;;;26.55;17.35;;;;;;;17.06;100.00;101825.44;5047455;28;20044;-78
2023/06/23 00:07:19;;;;;;;23.00;15.93;;;;;;;17.03;100.00;101828.25;5049007;28;20048;-78
2023/06/23 00:10:06;;;;;;;24.15;17.48;;;;;;;17.00;100.00;101841.81;5048834;28;20037;-76
2023/06/23 00:12:52;;;;;;;25.25;17.23;;;;;;;16.97;100.00;101843.72;5039435;28;20032;-77
2023/06/23 00:15:38;;;;;;;23.20;16.85;;;;;;;16.92;100.00;101829.72;5038971;28;20036;-78
2023/06/23 00:18:26;;;;;;;26.88;18.05;;;;;;;16.90;100.00;101825.41;5047413;28;20048;-78
2023/06/23 00:21:12;;;;;;;24.48;17.08;;;;;;;16.90;100.00;101826.28;5046768;28;20043;-79
2023/06/23 00:23:58;;;;;;;25.98;17.17;;;;;;;16.87;100.00;101834.47;5045028;28;20087;-78
2023/06/23 00:26:43;;;;;;;24.75;16.33;;;;;;;16.86;100.00;101839.91;5068132;28;20036;-78
2023/06/23 00:29:30;;;;;;;28.17;17.30;;;;;;;16.84;100.00;101853.38;5054834;28;20491;-77
2023/06/23 00:32:15;;;;;;;23.10;16.75;;;;;;;16.83;100.00;101862.31;5065775;28;20024;-77
2023/06/23 00:35:01;;;;;;;24.90;17.80;;;;;;;16.80;100.00;101867.84;5064359;28;20043;-77
2023/06/23 00:37:47;;;;;;;26.52;18.52;;;;;;;16.78;100.00;101869.75;5047108;28;20130;-79
2023/06/23 00:40:34;;;;;;;29.73;18.52;;;;;;;16.73;100.00;101875.38;5068376;28;20047;-78
2023/06/23 00:43:20;;;;;;;25.80;18.77;;;;;;;16.69;100.00;101887.16;5066911;28;20131;-78
2023/06/23 00:46:16;;;;;;;29.73;19.70;;;;;;;16.65;100.00;101894.50;5051320;28;20555;-79
2023/06/23 00:49:02;;;;;;;27.50;19.00;;;;;;;16.65;100.00;101890.94;5068075;28;20028;-79
2023/06/23 00:51:47;;;;;;;29.35;19.33;;;;;;;16.64;100.00;101889.22;5051209;28;20043;-77
2023/06/23 00:54:35;;;;;;;30.08;20.13;;;;;;;16.63;100.00;101883.03;5069305;28;20036;-77
2023/06/23 00:57:21;;;;;;;30.35;19.05;;;;;;;16.63;100.00;101876.81;5040171;28;20409;-78
2023/06/23 01:00:19;;;;;;;30.80;20.88;;;;;;;16.62;100.00;101873.25;5050905;28;20040;-78
2023/06/23 01:03:05;;;;;;;32.92;20.95;;;;;;;16.58;100.00;101871.72;5068102;28;20047;-78
2023/06/23 01:05:51;;;;;;;32.85;20.85;;;;;;;16.56;100.00;101870.91;5069116;28;20234;-77
2023/06/23 01:08:57;;;;;;;33.63;21.10;;;;;;;16.53;100.00;101879.13;5053086;28;20027;-77
2023/06/23 01:12:12;;;;;;;30.42;20.33;;;;;;;16.50;100.00;101873.94;5061741;28;20138;-77
2023/06/23 01:15:06;;;;;;;35.78;22.20;;;;;;;16.47;100.00;101880.31;5052332;28;20036;-78
2023/06/23 01:18:07;;;;;;;32.88;21.80;;;;;;;16.41;100.00;101884.16;5051157;28;20115;-77
2023/06/23 01:21:01;;;;;;;32.90;21.88;;;;;;;16.35;100.00;101879.16;5051770;28;20032;-77
2023/06/23 01:32:26;;;;;;;31.15;21.38;;;;;;;16.14;100.00;101887.38;5025244;28;20045;-77
2023/06/23 01:35:32;;;;;;;33.58;21.80;;;;;;;16.07;100.00;101891.31;5025859;28;20045;-77
2023/06/23 01:38:24;;;;;;;37.30;21.95;;;;;;;16.04;100.00;101896.81;4990342;28;20086;-76
2023/06/23 01:41:14;;;;;;;32.53;21.00;;;;;;;15.99;100.00;101897.06;4983485;28;20508;-77
2023/06/23 01:44:04;;;;;;;35.10;22.27;;;;;;;15.96;100.00;101899.88;4992917;28;20042;-76
2023/06/23 01:46:53;;;;;;;37.65;23.15;;;;;;;15.93;100.00;101905.38;4996878;28;20041;-77
2023/06/23 01:49:38;;;;;;;36.97;23.90;;;;;;;15.88;100.00;101908.28;4991460;28;20048;-77
2023/06/23 01:52:25;;;;;;;39.92;25.75;;;;;;;15.84;100.00;101908.47;4981982;28;20041;-77
2023/06/23 01:55:12;;;;;;;41.03;27.33;;;;;;;15.78;100.00;101909.66;4992597;28;20030;-78
2023/06/23 01:57:59;;;;;;;44.22;29.67;;;;;;;15.74;100.00;101919.63;4981697;28;20523;-76
2023/06/23 02:00:45;;;;;;;45.58;31.45;;;;;;;15.70;100.00;101917.19;5006084;28;20041;-77
2023/06/23 02:03:32;;;;;;;51.05;33.47;;;;;;;15.68;100.00;101906.59;4999153;28;20274;-78
2023/06/23 02:06:18;;;;;;;52.30;34.40;;;;;;;15.67;100.00;101917.34;4993396;28;20603;-79
2023/06/23 02:09:08;;;;;;;58.30;36.95;;;;;;;15.66;100.00;101923.63;5018407;28;20056;-78
2023/06/23 02:11:55;;;;;;;56.70;36.72;;;;;;;15.64;100.00;101929.06;5030654;28;20044;-79
2023/06/23 02:14:43;;;;;;;60.05;37.55;;;;;;;15.65;100.00;101927.25;5030072;28;20053;-78
2023/06/23 02:17:29;;;;;;;59.80;36.60;;;;;;;15.65;100.00;101921.91;5028087;28;20033;-77
2023/06/23 02:20:16;;;;;;;56.72;35.83;;;;;;;15.63;100.00;101929.13;5013876;28;20025;-78
2023/06/23 02:23:02;;;;;;;60.03;36.40;;;;;;;15.62;100.00;101930.91;5028704;28;20120;-77
2023/06/23 02:25:48;;;;;;;55.63;35.10;;;;;;;15.61;100.00;101939.88;5031084;28;20506;-78
2023/06/23 02:28:34;;;;;;;54.95;34.10;;;;;;;15.60;100.00;101935.47;5027126;28;20033;-78
2023/06/23 02:31:25;;;;;;;58.30;35.50;;;;;;;15.57;100.00;101931.16;5042655;28;20055;-78
2023/06/23 02:34:13;;;;;;;56.40;36.08;;;;;;;15.59;100.00;101941.75;5051641;28;20483;-78
2023/06/23 02:37:02;;;;;;;54.38;34.20;;;;;;;15.57;100.00;101944.50;5050703;28;20512;-78
2023/06/23 02:39:52;;;;;;;59.17;35.50;;;;;;;15.57;100.00;101957.84;5051790;28;20107;-79
2023/06/23 02:42:44;;;;;;;55.17;34.45;;;;;;;15.57;100.00;101971.19;5030756;28;20036;-78
2023/06/23 02:45:39;;;;;;;53.55;34.30;;;;;;;15.56;100.00;101964.13;5047695;28;20032;-78
2023/06/23 02:48:30;;;;;;;58.08;34.67;;;;;;;15.55;100.00;101972.19;5063846;28;20115;-78
2023/06/23 02:51:20;;;;;;;51.25;32.90;;;;;;;15.52;100.00;101972.34;5035336;28;20032;-77
2023/06/23 02:54:13;;;;;;;55.55;31.90;;;;;;;15.51;100.00;101976.81;5049297;28;20045;-79
2023/06/23 02:56:59;;;;;;;51.80;30.10;;;;;;;15.49;100.00;101976.03;5047136;28;20024;-78
2023/06/23 02:59:46;;;;;;;49.88;29.75;;;;;;;15.50;100.00;101972.44;5050772;28;20380;-77
2023/06/23 03:02:33;;;;;;;51.35;30.08;;;;;;;15.48;100.00;101968.97;5049108;28;20040;-77
2023/06/23 03:05:21;;;;;;;46.67;29.23;;;;;;;15.48;100.00;101960.97;5047394;28;20204;-77
2023/06/23 03:08:07;;;;;;;46.28;28.33;;;;;;;15.45;100.00;101964.66;5049817;28;20129;-78
2023/06/23 03:10:54;;;;;;;47.90;28.67;;;;;;;15.45;100.00;101972.66;5050466;28;20595;-78
2023/06/23 03:13:40;;;;;;;46.97;26.95;;;;;;;15.43;100.00;101971.00;5065409;28;20509;-79
2023/06/23 03:16:31;;;;;;;48.92;27.42;;;;;;;15.40;100.00;101980.00;5048769;28;20032;-78
2023/06/23 03:19:24;;;;;;;43.15;26.27;;;;;;;15.41;100.00;101978.22;5047066;28;20041;-78
2023/06/23 03:22:12;;;;;;;43.67;25.45;;;;;;;15.39;100.00;101978.28;5048780;28;20060;-79
2023/06/23 03:25:03;;;;;;;44.90;27.10;;;;;;;15.38;100.00;101981.91;5046280;28;20044;-78
2023/06/23 03:27:50;;;;;;;43.10;25.02;;;;;;;15.35;100.00;101982.03;5043195;28;20036;-79
2023/06/23 03:30:46;;;;;;;42.45;25.15;;;;;;;15.36;100.00;101985.56;5041444;28;20052;-78
2023/06/23 03:33:34;;;;;;;40.97;23.58;;;;;;;15.33;100.00;101994.59;5038508;28;20394;-77
2023/06/23 03:36:21;;;;;;;39.50;22.27;;;;;;;15.31;100.00;101991.97;5061439;28;20037;-77
2023/06/23 03:39:18;;;;;;;35.33;21.13;;;;;;;15.29;100.00;102001.00;5048663;28;20040;-77
2023/06/23 03:42:04;;;;;;;37.38;23.00;;;;;;;15.27;100.00;102009.09;5048366;28;20107;-78
2023/06/23 03:44:51;;;;;;;36.67;22.40;;;;;;;15.26;100.00;102018.00;5041577;28;20063;-78
2023/06/23 03:47:39;;;;;;;40.78;22.48;;;;;;;15.25;100.00;102007.41;5049005;28;20036;-77
2023/06/23 03:50:30;;;;;;;34.85;21.33;;;;;;;15.24;100.00;102006.53;5046312;28;20032;-77
2023/06/23 03:53:16;;;;;;;33.90;21.17;;;;;;;15.24;100.00;102008.38;5049890;28;20048;-78
2023/06/23 03:56:03;;;;;;;37.30;22.15;;;;;;;15.23;100.00;102012.81;5049969;28;20036;-77
2023/06/23 03:58:49;;;;;;;35.92;20.95;;;;;;;15.22;100.00;102016.44;5048663;28;20032;-76
2023/06/23 04:01:36;;;;;;;35.28;20.13;;;;;;;15.23;100.00;102026.16;5050270;28;20029;-77
2023/06/23 04:04:22;;;;;;;33.20;20.10;;;;;;;15.22;100.00;102029.78;5044546;28;20051;-77
2023/06/23 04:07:08;;;;;;;35.55;19.92;;;;;;;15.21;100.00;102030.72;5047351;28;20036;-78
2023/06/23 04:09:55;;;;;;;36.05;19.40;;;;;;;15.22;100.00;102021.75;5048212;28;20062;-77
2023/06/23 04:12:41;;;;;;;31.52;19.48;;;;;;;15.20;100.00;102026.31;5045292;28;20507;-77
2023/06/23 04:15:28;;;;;;;34.45;19.75;;;;;;;15.21;100.00;102028.88;5043206;28;20036;-77
2023/06/23 04:18:14;;;;;;;33.92;18.15;;;;;;;15.21;100.00;102038.72;5050144;28;20032;-77
2023/06/23 04:21:02;;;;;;;31.08;17.92;;;;;;;15.20;100.00;102028.97;5048462;28;20979;-76
2023/06/23 04:23:49;;;;;;;31.13;17.48;;;;;;;15.23;100.00;102033.28;5048674;28;20047;-76
2023/06/23 04:26:36;;;;;;;27.65;16.85;;;;;;;15.25;100.00;102053.63;5039960;28;20031;-77
2023/06/23 04:29:23;;;;;;;28.58;17.73;;;;;;;15.25;100.00;102042.94;5046691;28;21812;-77
2023/06/23 04:32:12;;;;;;;25.58;16.17;;;;;;;15.27;100.00;102057.09;5048699;28;20422;-77
2023/06/23 04:34:58;;;;;;;29.27;17.80;;;;;;;15.28;100.00;102058.84;5047120;28;20048;-78
2023/06/23 04:37:50;;;;;;;29.60;16.70;;;;;;;15.31;100.00;102069.34;5044145;28;20036;-77
2023/06/23 04:40:47;;;;;;;30.50;16.73;;;;;;;15.33;100.00;102062.16;5047800;28;20499;-76
2023/06/23 04:43:37;;;;;;;28.02;16.65;;;;;;;15.36;100.00;102057.59;5048298;28;20050;-77
2023/06/23 04:46:26;;;;;;;27.08;16.73;;;;;;;15.37;100.00;102070.00;5044624;28;20040;-77
2023/06/23 04:49:16;;;;;;;28.90;16.67;;;;;;;15.40;100.00;102072.53;5045155;28;20117;-77
2023/06/23 04:52:03;;;;;;;30.02;17.08;;;;;;;15.39;100.00;102066.34;5047782;28;20455;-78
2023/06/23 04:54:53;;;;;;;28.05;16.33;;;;;;;15.40;100.00;102073.41;5048265;28;20040;-77
2023/06/23 04:57:39;;;;;;;25.73;15.60;;;;;;;15.43;100.00;102072.41;5046567;28;20041;-78
2023/06/23 05:00:25;;;;;;;27.40;16.08;;;;;;;15.46;100.00;102078.44;5049729;28;20036;-77
2023/06/23 05:03:11;;;;;;;28.83;16.23;;;;;;;15.49;100.00;102080.13;5047066;28;20033;-77
2023/06/23 05:06:07;;;;;;;28.75;16.20;;;;;;;15.54;100.00;102079.91;5047394;28;20024;-77
2023/06/23 05:08:53;;;;;;;24.27;15.18;;;;;;;15.60;100.00;102082.28;5050458;28;20123;-78
2023/06/23 05:11:41;;;;;;;27.13;16.13;;;;;;;15.69;100.00;102086.31;5052216;28;20048;-78
2023/06/23 05:14:27;;;;;;;30.00;17.10;;;;;;;15.80;100.00;102091.16;5046152;28;20032;-76
2023/06/23 05:17:14;;;;;;;32.38;16.92;;;;;;;15.92;100.00;102087.03;5050405;28;20067;-77
2023/06/23 05:20:01;;;;;;;31.40;17.58;;;;;;;16.04;100.00;102086.44;5052105;28;20068;-77
2023/06/23 05:22:48;;;;;;;31.25;17.67;;;;;;;16.19;100.00;102097.31;5049013;28;20179;-77
2023/06/23 05:25:35;;;;;;;25.17;16.67;;;;;;;16.32;100.00;102092.22;5052540;28;20041;-78
2023/06/23 05:28:26;;;;;;;26.38;16.80;;;;;;;16.47;100.00;102095.94;5036714;28;20708;-78
2023/06/23 05:31:13;;;;;;;27.17;16.20;;;;;;;16.61;100.00;102093.41;5047558;28;20146;-77
2023/06/23 05:33:59;;;;;;;26.17;16.75;;;;;;;16.78;100.00;102092.53;5035520;28;20536;-78
2023/06/23 05:36:46;;;;;;;25.77;16.38;;;;;;;16.96;100.00;102093.38;5051596;28;20036;-77
2023/06/23 05:39:36;;;;;;;27.23;16.00;;;;;;;17.14;100.00;102095.19;5045822;28;20082;-77
2023/06/23 05:42:22;;;;;;;25.75;16.60;;;;;;;17.32;100.00;102106.75;5049481;28;20406;-77
2023/06/23 05:45:09;;;;;;;26.73;16.20;;;;;;;17.51;100.00;102111.94;5051320;28;20071;-77
2023/06/23 05:48:06;;;;;;;24.75;16.20;;;;;;;17.69;100.00;102112.72;5052133;28;20127;-79
2023/06/23 05:50:52;;;;;;;24.80;15.55;;;;;;;17.90;100.00;102110.69;5045685;28;20036;-77
2023/06/23 05:53:40;;;;;;;21.10;14.70;;;;;;;18.09;100.00;102106.09;5049591;28;20036;-77
2023/06/23 05:56:30;;;;;;;21.83;14.02;;;;;;;18.26;100.00;102118.53;5046353;28;20032;-77
2023/06/23 05:59:22;;;;;;;20.83;14.18;;;;;;;18.42;100.00;102110.47;5050261;28;20103;-77
2023/06/23 06:02:13;;;;;;;18.10;12.52;;;;;;;18.57;100.00;102106.88;5031135;28;20200;-77
2023/06/23 06:05:00;;;;;;;21.00;11.75;;;;;;;18.73;100.00;102114.84;5048221;28;20055;-76
2023/06/23 06:07:46;;;;;;;17.42;11.57;;;;;;;18.86;100.00;102120.34;5048282;28;20028;-77
2023/06/23 06:10:32;;;;;;;18.00;13.18;;;;;;;18.97;100.00;102118.81;5050106;28;20462;-76
2023/06/23 06:13:19;;;;;;;20.55;13.15;;;;;;;19.03;100.00;102115.81;5051205;28;20041;-76
2023/06/23 06:16:07;;;;;;;18.70;11.98;;;;;;;19.15;100.00;102119.53;5036036;28;20178;-76
2023/06/23 06:18:53;;;;;;;18.42;11.70;;;;;;;19.27;100.00;102123.28;5045964;28;20036;-77
2023/06/23 06:21:39;;;;;;;15.13;10.93;;;;;;;19.37;100.00;102128.94;5041487;28;20739;-76
2023/06/23 06:24:27;;;;;;;14.52;10.10;;;;;;;19.48;100.00;102134.50;5049576;28;20048;-76
2023/06/23 06:27:13;;;;;;;12.25;8.98;;;;;;;19.59;100.00;102138.31;5036690;28;20067;-77
2023/06/23 06:30:00;;;;;;;14.70;9.02;;;;;;;19.71;100.00;102142.91;5050555;28;20039;-77
2023/06/23 06:32:47;;;;;;;12.40;8.10;;;;;;;19.85;100.00;102150.09;5044335;28;20044;-76
2023/06/23 06:35:34;;;;;;;9.48;7.85;;;;;;;19.93;100.00;102154.94;5049221;28;20032;-78
2023/06/23 06:38:21;;;;;;;12.93;8.23;;;;;;;20.01;100.00;102157.19;5051786;28;20044;-78
2023/06/23 06:41:07;;;;;;;11.48;8.27;;;;;;;20.10;100.00;102167.31;5050368;28;20181;-77
2023/06/23 06:43:53;;;;;;;12.77;8.05;;;;;;;20.21;100.00;102172.88;5048904;28;20044;-78
2023/06/23 06:46:40;;;;;;;12.95;8.77;;;;;;;20.31;100.00;102177.63;5049068;28;20564;-77
2023/06/23 06:49:26;;;;;;;11.18;8.35;;;;;;;20.46;100.00;102173.94;5050254;28;20032;-77
2023/06/23 06:52:15;;;;;;;12.82;9.10;;;;;;;20.61;100.00;102179.25;5049245;28;20033;-78
2023/06/23 06:55:02;;;;;;;9.82;7.60;;;;;;;20.67;100.00;102176.16;5049127;28;21527;-78
2023/06/23 06:57:49;;;;;;;9.25;6.57;;;;;;;20.71;100.00;102184.88;5048704;28;20083;-78
2023/06/23 07:00:37;;;;;;;11.80;8.00;;;;;;;20.88;100.00;102183.75;5049034;28;20045;-78
2023/06/23 07:03:24;;;;;;;8.73;6.60;;;;;;;21.18;100.00;102179.91;5035620;28;20041;-78
2023/06/23 07:06:11;;;;;;;7.68;6.13;;;;;;;21.32;100.00;102183.47;5050107;28;20064;-78
2023/06/23 07:08:56;;;;;;;9.30;6.28;;;;;;;21.33;100.00;102177.09;5049435;28;20045;-78
2023/06/23 07:11:42;;;;;;;9.02;6.32;;;;;;;21.41;100.00;102183.69;5051739;28;20129;-77
2023/06/23 07:14:28;;;;;;;10.98;6.30;;;;;;;21.58;100.00;102198.63;5037592;28;20123;-78
2023/06/23 07:17:13;;;;;;;10.50;6.65;;;;;;;21.65;100.00;102184.72;5048558;28;20671;-77
2023/06/23 07:19:59;;;;;;;8.98;5.93;;;;;;;21.73;100.00;102190.47;5049808;28;20668;-77
2023/06/23 07:22:45;;;;;;;7.85;5.50;;;;;;;21.81;100.00;102185.41;5050261;28;20465;-77
2023/06/23 07:25:31;;;;;;;10.45;5.30;;;;;;;21.77;100.00;102197.34;5048311;28;20147;-78
2023/06/23 07:28:17;;;;;;;7.72;4.93;;;;;;;21.77;100.00;102201.88;5047116;28;20040;-77
2023/06/23 07:31:03;;;;;;;5.22;4.22;;;;;;;21.87;100.00;102210.16;5048700;28;20053;-78
2023/06/23 07:33:48;;;;;;;7.43;5.10;;;;;;;21.96;100.00;102204.13;5044926;28;20098;-76
2023/06/23 07:36:34;;;;;;;6.55;4.78;;;;;;;22.10;100.00;102205.78;5049836;28;20041;-84
2023/06/23 07:39:23;;;;;;;6.50;5.00;;;;;;;22.23;100.00;102201.22;5051562;28;20051;-82
2023/06/23 07:42:09;;;;;;;6.60;5.07;;;;;;;22.25;100.00;102207.38;5052399;28;20047;-84
2023/06/23 07:44:55;;;;;;;7.28;5.47;;;;;;;22.38;100.00;102210.00;5033623;28;20142;-86
2023/06/23 07:47:43;;;;;;;7.47;4.93;;;;;;;22.42;100.00;102213.34;5052947;28;20675;-84
2023/06/23 07:50:29;;;;;;;6.97;4.97;;;;;;;22.47;100.00;102212.97;5053936;28;20115;-85
2023/06/23 07:53:15;;;;;;;5.07;4.00;;;;;;;22.54;100.00;102208.88;5053310;28;20051;-84
2023/06/23 07:56:00;;;;;;;5.50;4.28;;;;;;;22.69;100.00;102209.56;5052261;28;20115;-83
2023/06/23 07:58:46;;;;;;;7.50;4.55;;;;;;;22.90;100.00;102204.38;5023250;28;20055;-84
2023/06/23 08:01:32;;;;;;;5.25;4.20;;;;;;;23.01;100.00;102208.94;5038671;28;20048;-84
2023/06/23 08:04:18;;;;;;;7.40;4.53;;;;;;;23.15;100.00;102210.56;5049450;28;20415;-87
2023/06/23 08:07:04;;;;;;;5.53;4.28;;;;;;;23.18;100.00;102214.84;5053432;28;20052;-87
2023/06/23 08:09:53;;;;;;;5.43;4.10;;;;;;;23.14;100.00;102213.34;5047148;28;20097;-83
2023/06/23 08:12:38;;;;;;;6.85;3.53;;;;;;;23.17;100.00;102211.31;5049645;28;20035;-75
2023/06/23 08:15:24;;;;;;;6.78;3.97;;;;;;;23.32;100.00;102203.00;5047259;28;20153;-74
2023/06/23 08:18:10;;;;;;;6.28;3.95;;;;;;;23.51;100.00;102212.34;5048464;28;20036;-75
2023/06/23 08:20:56;;;;;;;7.63;3.85;;;;;;;23.45;100.00;102216.41;5049342;28;20044;-75
2023/06/23 08:23:47;;;;;;;4.53;3.80;;;;;;;23.28;98.74;102223.97;5050580;28;20044;-74
2023/06/23 08:26:32;;;;;;;5.70;3.47;;;;;;;23.24;98.81;102221.59;5049799;28;20071;-76
2023/06/23 08:29:18;;;;;;;3.22;2.70;;;;;;;23.19;95.88;102222.84;5050796;28;20041;-75
2023/06/23 08:32:05;;;;;;;4.30;2.85;;;;;;;23.31;96.61;102228.31;5065139;28;20079;-75
2023/06/23 08:34:51;;;;;;;3.88;2.92;;;;;;;23.46;95.57;102240.59;5068550;28;20063;-75
2023/06/23 08:37:37;;;;;;;4.97;3.45;;;;;;;23.50;95.33;102235.81;5055747;28;20040;-78
2023/06/23 08:40:23;;;;;;;5.20;3.33;;;;;;;23.36;95.02;102220.69;5072282;28;20035;-75
2023/06/23 08:43:10;;;;;;;4.03;3.08;;;;;;;23.47;96.49;102227.94;5060974;28;20498;-76
2023/06/23 08:46:00;;;;;;;6.50;3.33;;;;;;;23.61;95.71;102237.66;5074815;28;20397;-76
2023/06/23 08:48:49;;;;;;;5.00;3.45;;;;;;;23.62;96.09;102233.13;5059235;28;20031;-76
2023/06/23 08:51:35;;;;;;;4.53;3.60;;;;;;;23.71;96.75;102241.34;5058658;28;20042;-76
2023/06/23 08:54:21;;;;;;;4.30;3.70;;;;;;;23.71;95.42;102245.91;5072914;28;20036;-76
2023/06/23 08:57:07;;;;;;;4.10;3.28;;;;;;;23.71;94.19;102240.50;5059482;28;20039;-76
2023/06/23 08:59:53;;;;;;;3.60;3.20;;;;;;;23.83;95.14;102252.16;5071339;28;20063;-76
2023/06/23 09:02:39;;;;;;;5.05;3.33;;;;;;;23.96;95.20;102261.00;5056873;28;20054;-76
2023/06/23 09:05:25;;;;;;;5.22;2.97;;;;;;;23.99;93.91;102257.19;5055697;28;20048;-76
2023/06/23 09:08:13;;;;;;;3.92;3.53;;;;;;;24.08;94.07;102266.44;5043760;28;20037;-76
2023/06/23 09:10:59;;;;;;;3.75;3.38;;;;;;;24.18;91.79;102259.28;5071729;28;20138;-77
2023/06/23 09:13:45;;;;;;;3.78;3.17;;;;;;;24.20;89.32;102267.28;5055390;28;20116;-74
2023/06/23 09:16:31;;;;;;;4.57;3.15;;;;;;;24.18;88.76;102267.41;5073625;28;20040;-77
2023/06/23 09:19:17;;;;;;;6.57;3.53;;;;;;;24.20;89.42;102265.44;5057940;28;20070;-76
2023/06/23 09:22:03;;;;;;;4.70;3.30;;;;;;;24.34;88.63;102267.00;5053313;28;20047;-75
2023/06/23 09:24:51;;;;;;;6.20;3.72;;;;;;;24.47;87.94;102272.28;5055998;28;20036;-75
2023/06/23 09:27:40;;;;;;;6.18;3.63;;;;;;;24.55;85.86;102272.50;5072709;28;20033;-75
2023/06/23 09:30:35;;;;;;;5.43;3.30;;;;;;;24.61;81.73;102275.69;5042660;28;20031;-75
2023/06/23 09:33:21;;;;;;;5.68;3.80;;;;;;;24.62;83.90;102270.13;5056457;28;20068;-74
2023/06/23 09:36:07;;;;;;;8.35;4.25;;;;;;;24.68;81.73;102271.47;5055034;28;20036;-77
2023/06/23 09:38:53;;;;;;;5.65;4.10;;;;;;;24.74;81.26;102280.91;5043929;28;20503;-76
2023/06/23 09:41:40;;;;;;;5.38;3.85;;;;;;;24.77;82.07;102265.28;5070603;28;20039;-75
2023/06/23 09:44:36;;;;;;;4.63;3.83;;;;;;;24.93;78.16;102278.41;5055883;28;20079;-74
2023/06/23 09:47:25;;;;;;;7.18;3.50;;;;;;;24.88;78.71;102290.63;5067218;28;20028;-80
2023/06/23 09:50:20;;;;;;;5.70;4.30;;;;;;;24.85;76.50;102278.22;5058883;28;20063;-80
2023/06/23 09:53:08;;;;;;;4.00;3.60;;;;;;;24.80;77.70;102292.09;5056271;28;20043;-82
2023/06/23 09:55:54;;;;;;;5.00;3.60;;;;;;;24.71;75.87;102300.13;5069361;28;20138;-81
2023/06/23 09:58:41;;;;;;;4.00;3.33;;;;;;;24.63;75.30;102311.59;5053112;28;20093;-80
2023/06/23 10:01:30;;;;;;;6.38;3.47;;;;;;;24.51;74.80;102305.38;5052159;28;20036;-80
2023/06/23 10:04:15;;;;;;;3.70;3.05;;;;;;;24.51;74.87;102313.47;5052039;28;20115;-81
2023/06/23 10:07:21;;;;;;;4.38;3.50;;;;;;;24.61;72.12;102310.88;5056334;28;20040;-80
2023/06/23 10:10:07;;;;;;;6.22;3.58;;;;;;;24.60;73.50;102304.59;5054421;28;20024;-81
2023/06/23 10:12:53;;;;;;;3.95;3.20;;;;;;;24.54;72.80;102305.09;5048493;28;20051;-79
2023/06/23 10:15:41;;;;;;;4.22;3.03;;;;;;;24.50;72.17;102307.19;5053462;28;20966;-81
2023/06/23 10:18:33;;;;;;;5.57;3.58;;;;;;;24.50;71.41;102311.72;5070644;28;20036;-83
2023/06/23 10:21:19;;;;;;;4.60;3.40;;;;;;;24.36;71.14;102313.72;5039928;28;20580;-80
2023/06/23 10:24:11;;;;;;;7.80;3.47;;;;;;;24.26;70.91;102304.66;5070467;28;20047;-82
2023/06/23 10:26:58;;;;;;;3.92;3.55;;;;;;;24.16;73.56;102299.13;5059250;28;20026;-80
2023/06/23 10:29:47;;;;;;;7.05;4.35;;;;;;;24.16;73.86;102309.06;5052277;28;20040;-81
2023/06/23 10:32:34;;;;;;;5.45;3.75;;;;;;;24.22;74.69;102306.75;5057071;28;20081;-80
2023/06/23 10:35:22;;;;;;;4.80;3.55;;;;;;;24.25;74.66;102306.50;5072807;28;20043;-81
2023/06/23 10:38:08;;;;;;;5.38;3.55;;;;;;;24.28;73.14;102306.25;5058720;28;20629;-80
2023/06/23 10:40:54;;;;;;;4.90;3.28;;;;;;;24.27;70.69;102306.38;5073295;28;20043;-81
2023/06/23 10:43:41;;;;;;;4.00;3.03;;;;;;;24.26;70.54;102310.94;5053966;28;20040;-81
2023/06/23 10:46:30;;;;;;;5.45;3.72;;;;;;;24.28;72.35;102308.97;5041732;28;20747;-79
2023/06/23 10:49:16;;;;;;;5.25;3.20;;;;;;;24.32;70.64;102316.81;5073852;28;20426;-80
2023/06/23 10:52:07;;;;;;;4.88;3.10;;;;;;;24.20;70.08;102316.84;5054412;28;20406;-82
2023/06/23 10:54:53;;;;;;;3.35;2.58;;;;;;;24.11;68.57;102312.16;5070172;28;20040;-80
2023/06/23 10:57:38;;;;;;;3.88;2.80;;;;;;;24.00;69.16;102316.56;5064415;28;20056;-76
2023/06/23 11:00:30;;;;;;;5.80;3.70;;;;;;;24.05;68.75;102315.31;5071882;28;20044;-75
2023/06/23 11:03:33;;;;;;;4.55;3.40;;;;;;;23.99;66.26;102317.56;5048445;28;20078;-75
2023/06/23 11:06:35;;;;;;;4.82;3.20;;;;;;;24.04;65.75;102319.00;5068048;28;20032;-76
2023/06/23 11:09:55;;;;;;;3.78;2.85;;;;;;;24.07;59.33;102322.38;5053733;28;20085;-76
2023/06/23 11:12:45;;;;;;;4.30;2.90;;;;;;;24.10;66.71;102322.13;5070464;28;21253;-76
2023/06/23 11:15:31;;;;;;;3.55;2.30;;;;;;;24.10;65.75;102322.13;5069063;28;20034;-75
2023/06/23 11:18:21;;;;;;;3.20;2.30;;;;;;;24.21;65.01;102321.28;5062423;28;20051;-75
2023/06/23 11:21:27;;;;;;;2.53;2.30;;;;;;;24.31;62.33;102328.63;5068792;28;20070;-75
2023/06/23 11:24:16;;;;;;;5.30;2.55;;;;;;;24.34;63.63;102325.69;5051043;28;20050;-75
2023/06/23 11:27:03;;;;;;;3.35;2.58;;;;;;;24.34;64.40;102336.50;5058644;28;20044;-75
2023/06/23 11:30:16;;;;;;;4.00;3.10;;;;;;;24.35;60.85;102335.53;5045755;28;20483;-75
2023/06/23 11:33:24;;;;;;;3.13;2.72;;;;;;;24.31;61.40;102328.63;5052698;28;20599;-76
2023/06/23 11:36:15;;;;;;;3.95;2.60;;;;;;;24.33;64.76;102332.06;5035311;28;20255;-76
2023/06/23 11:39:01;;;;;;;4.20;3.00;;;;;;;24.36;65.23;102331.81;5052883;28;20047;-75
2023/06/23 11:41:47;;;;;;;3.38;2.72;;;;;;;24.32;65.72;102341.16;5066102;28;20115;-76
2023/06/23 11:44:33;;;;;;;4.03;2.60;;;;;;;24.35;65.41;102341.78;5039105;28;20501;-76
2023/06/23 11:47:28;;;;;;;5.63;2.72;;;;;;;24.47;60.95;102347.19;5069238;28;20060;-76
2023/06/23 11:50:14;;;;;;;3.20;2.90;;;;;;;24.50;64.69;102347.78;5067220;28;20131;-76
2023/06/23 11:53:00;;;;;;;3.28;2.38;;;;;;;24.52;64.26;102348.50;5068095;28;20043;-77
2023/06/23 11:55:48;;;;;;;3.08;2.33;;;;;;;24.53;63.78;102358.34;5069035;28;20047;-78
2023/06/23 11:58:35;;;;;;;2.80;2.10;;;;;;;24.61;63.37;102352.31;5054205;28;20044;-77
2023/06/23 12:01:20;;;;;;;4.60;2.20;;;;;;;24.59;61.67;102362.41;5041488;28;20043;-75
2023/06/23 12:04:07;;;;;;;2.70;2.20;;;;;;;24.45;61.53;102360.00;5054236;28;20226;-77
2023/06/23 12:06:53;;;;;;;3.35;2.22;;;;;;;24.41;61.59;102362.09;5067015;28;20433;-76
2023/06/23 12:09:42;;;;;;;2.97;2.00;;;;;;;24.39;60.03;102366.75;5058003;28;20040;-74
2023/06/23 12:12:28;;;;;;;2.28;2.00;;;;;;;24.20;60.02;102370.94;5051997;28;20739;-74
2023/06/23 12:15:14;;;;;;;3.88;2.25;;;;;;;24.20;60.94;102379.06;5051824;28;20251;-77
2023/06/23 12:18:00;;;;;;;4.15;2.17;;;;;;;24.17;60.13;102375.75;5069064;28;20038;-75
2023/06/23 12:20:46;;;;;;;4.15;1.98;;;;;;;24.24;60.10;102376.97;5066846;28;20036;-76
2023/06/23 12:23:32;;;;;;;2.22;1.80;;;;;;;24.30;59.04;102373.78;5068636;28;20044;-76
2023/06/23 12:26:22;;;;;;;2.85;2.00;;;;;;;24.35;59.46;102362.59;5053819;28;20477;-75
2023/06/23 12:29:09;;;;;;;2.10;1.80;;;;;;;24.45;58.89;102363.53;5052669;28;20040;-75
2023/06/23 12:31:56;;;;;;;2.20;2.00;;;;;;;24.47;58.61;102376.94;5069644;28;20059;-74
2023/06/23 12:34:44;;;;;;;3.03;2.15;;;;;;;24.42;58.61;102366.50;5067594;28;20127;-81
2023/06/23 12:37:42;;;;;;;3.22;1.80;;;;;;;24.48;54.90;102370.56;5045584;28;20057;-85
2023/06/23 12:40:33;;;;;;;3.42;1.75;;;;;;;24.47;56.24;102371.53;5056045;28;20043;-86
2023/06/23 12:43:20;;;;;;;3.45;2.08;;;;;;;24.55;58.14;102378.06;5054695;28;21016;-85
2023/06/23 12:46:08;;;;;;;3.40;1.70;;;;;;;24.63;57.90;102379.28;5072015;28;20040;-84
2023/06/23 12:48:54;;;;;;;2.95;2.17;;;;;;;24.70;59.04;102380.50;5058243;28;20036;-85
2023/06/23 12:51:40;;;;;;;2.33;1.95;;;;;;;24.71;60.31;102374.09;5075781;28;20093;-83
2023/06/23 12:54:29;;;;;;;2.97;1.88;;;;;;;24.80;58.25;102384.16;5053738;28;20048;-85
2023/06/23 12:57:15;;;;;;;2.45;1.98;;;;;;;24.83;57.63;102380.34;5056284;28;20117;-86